Rotterdam Airport (VATSIM)

Aankomst - 1


Callsign Type Herkomst Gepland (LT) Actuele aankomsttijd (LT) Status
DCMBG B350 Metz-Nancy-Lorraine Airport 00:00 00:13 Wordt verwacht


Vertrek


Geen EHRD vertrekken gevonden.
Callsign Type Bestemming Vertrektijd (LT) Status



Beschikbare gates & stands


Stand/gate Status Stand/gate Status
A1D1
A2D2
A3D3
B1GA-parking
B2GA-parking
B3GA-parking
C1GA-parking
C2GA-parking
C3



METAR


Tijd 20:55Z

QNH 1007 hPa

CLRUnknown

14 °C / 11 °C

240° / 3kts

Vis 9,700

METAR: EHRD 292055Z AUTO 24003KT 9999 NSC 14/11 Q1007 NOSIG


Online controllers


  • Geen EHRD controllers online.

ATIS


Actieve banen



Neem deel aan de community!

Dutch Sim Pilot heeft een Discord! Druk op onderstaande knop om toegang te krijgen.

Join Discord